Time;durP1;ratioP1;P1;durP2;ratioP2;P2;SDS_P1;SDS_P2;PMS_P1;PMS_P2;Temp;Humidity;BMP_temperature;BMP_pressure;BME280_temperature;BME280_humidity;BME280_pressure;Samples;Min_cycle;Max_cycle;Signal;HPM_P1;HPM_P2
2022/11/11 00:01:22;;;;;;;78.88;47.75;;;;;;;7.89;80.55;100528.97;5073384;28;20051;-69
2022/11/11 00:03:47;;;;;;;79.88;48.17;;;;;;;8.02;78.78;100536.66;5075014;28;20032;-69
2022/11/11 00:06:15;;;;;;;83.65;45.92;;;;;;;7.86;79.01;100531.22;5093290;28;20030;-69
2022/11/11 00:08:41;;;;;;;82.97;48.70;;;;;;;7.68;79.54;100529.97;5092987;28;20028;-69
2022/11/11 00:11:10;;;;;;;75.05;47.42;;;;;;;7.55;80.07;100525.88;5093050;28;20051;-69
2022/11/11 00:13:37;;;;;;;78.43;49.30;;;;;;;7.39;80.25;100533.50;5092944;28;20060;-69
2022/11/11 00:16:20;;;;;;;87.20;49.00;;;;;;;7.30;81.39;100535.22;5091085;28;20081;-69
2022/11/11 00:27:07;;;;;;;87.63;51.83;;;;;;;7.62;80.53;100517.22;5091608;28;20524;-69
2022/11/11 00:29:32;;;;;;;80.00;49.30;;;;;;;7.72;80.05;100519.91;5092586;28;20024;-69
2022/11/11 00:35:51;;;;;;;76.07;44.58;;;;;;;7.98;78.16;100518.88;5072307;28;20040;-69
2022/11/11 00:37:27;;;;;;;76.32;46.35;;;;;;;8.11;77.24;100525.72;5071365;28;20048;-69
2022/11/11 00:39:53;;;;;;;73.63;44.85;;;;;;;8.13;76.52;100521.50;5072120;28;20078;-69
2022/11/11 00:42:18;;;;;;;71.63;46.63;;;;;;;8.15;76.71;100515.66;5089883;28;21539;-69
2022/11/11 00:44:43;;;;;;;69.28;45.67;;;;;;;8.17;76.51;100518.97;5092199;28;20024;-69
2022/11/11 00:52:39;;;;;;;68.40;43.13;;;;;;;8.18;75.81;100523.41;5092179;28;20136;-69
2022/11/11 00:55:05;;;;;;;68.30;42.30;;;;;;;8.17;75.49;100516.19;5092269;28;20023;-69
2022/11/11 00:57:31;;;;;;;66.00;42.00;;;;;;;8.12;75.62;100516.25;5072595;28;20028;-69
2022/11/11 00:59:56;;;;;;;63.67;42.20;;;;;;;8.07;75.31;100516.28;5091795;28;20674;-69
2022/11/11 01:02:22;;;;;;;76.18;43.85;;;;;;;8.12;75.14;100505.09;5092158;28;20023;-69
2022/11/11 01:04:47;;;;;;;66.55;42.15;;;;;;;8.07;74.51;100507.91;5092078;28;20020;-69
2022/11/11 01:07:13;;;;;;;71.00;44.17;;;;;;;8.06;74.68;100515.47;5073879;28;20031;-69
2022/11/11 01:09:38;;;;;;;68.63;43.28;;;;;;;7.91;74.31;100505.28;5091065;28;20028;-69
2022/11/11 01:12:04;;;;;;;78.88;44.65;;;;;;;7.95;74.39;100514.69;5082258;28;20024;-69
2022/11/11 01:14:29;;;;;;;70.40;46.35;;;;;;;7.86;75.23;100519.25;5091680;28;20490;-69
2022/11/11 01:16:55;;;;;;;65.90;42.63;;;;;;;7.91;75.06;100505.28;5091948;28;20016;-69
2022/11/11 01:19:20;;;;;;;76.18;44.45;;;;;;;7.87;74.65;100501.41;5091772;28;20560;-69
2022/11/11 01:21:46;;;;;;;76.85;45.10;;;;;;;7.90;74.88;100505.56;5084291;28;20583;-69
2022/11/11 01:24:11;;;;;;;70.32;43.13;;;;;;;7.96;74.92;100501.63;5071296;28;20020;-69
2022/11/11 01:26:37;;;;;;;69.80;42.33;;;;;;;7.95;74.42;100505.53;5071485;28;20036;-69
2022/11/11 01:29:02;;;;;;;74.57;41.83;;;;;;;7.87;74.82;100501.41;5074132;28;20035;-69
2022/11/11 01:31:28;;;;;;;70.78;42.88;;;;;;;7.84;74.23;100501.97;5073484;28;20027;-69
2022/11/11 01:33:53;;;;;;;73.40;45.58;;;;;;;7.80;74.76;100492.56;5091578;28;20540;-69
2022/11/11 01:36:25;;;;;;;72.80;41.42;;;;;;;7.82;75.04;100498.66;5090203;28;20418;-69
2022/11/11 01:38:57;;;;;;;73.40;42.70;;;;;;;7.82;75.19;100490.31;5091446;28;20534;-69
2022/11/11 01:41:35;;;;;;;75.75;44.28;;;;;;;7.83;74.92;100484.44;5073376;28;20027;-69
2022/11/11 01:44:09;;;;;;;83.93;43.75;;;;;;;7.79;75.09;100491.72;5091117;28;20110;-69
2022/11/11 01:46:38;;;;;;;74.65;44.22;;;;;;;7.80;75.35;100487.81;5090239;28;20030;-69
2022/11/11 01:49:18;;;;;;;77.40;45.67;;;;;;;7.76;75.80;100491.47;5071034;28;20028;-69
2022/11/11 01:52:05;;;;;;;;;;;;;;;7.76;75.28;100497.88;5053628;28;20028;-69
2022/11/11 01:54:40;;;;;;;71.57;41.40;;;;;;;7.72;75.08;100497.63;5071064;28;19908;-69
2022/11/11 01:57:33;;;;;;;69.15;43.88;;;;;;;7.79;75.64;100493.69;5071113;28;20027;-69
2022/11/11 02:00:13;;;;;;;78.57;43.83;;;;;;;7.57;75.01;100486.59;5075025;28;20028;-69
2022/11/11 02:02:53;;;;;;;75.70;43.08;;;;;;;7.53;75.48;100499.44;5060149;28;20119;-69
2022/11/11 02:08:15;;;;;;;72.72;43.85;;;;;;;7.44;76.10;100500.06;5071394;28;20089;-69
2022/11/11 02:10:45;;;;;;;74.85;43.08;;;;;;;7.50;76.28;100494.47;5075576;28;20058;-69
2022/11/11 02:15:57;;;;;;;65.30;41.00;;;;;;;7.42;75.58;100493.09;5089537;28;20073;-69
2022/11/11 02:18:23;;;;;;;68.28;41.63;;;;;;;7.42;75.90;100487.53;5091124;28;20028;-69
2022/11/11 02:20:49;;;;;;;72.40;44.50;;;;;;;7.28;75.69;100493.75;5091340;28;20051;-69
2022/11/11 02:23:21;;;;;;;70.40;43.53;;;;;;;7.30;75.68;100504.59;5095004;28;20024;-69
2022/11/11 02:25:49;;;;;;;65.97;43.38;;;;;;;7.29;75.85;100505.72;5095065;28;20418;-69
2022/11/11 02:28:16;;;;;;;70.32;43.13;;;;;;;7.27;76.10;100492.09;5093357;28;20024;-69
2022/11/11 02:30:42;;;;;;;63.58;40.85;;;;;;;7.29;75.69;100502.94;5093563;28;20085;-69
2022/11/11 02:33:07;;;;;;;71.13;42.17;;;;;;;7.30;76.05;100496.25;5095044;28;20482;-69
2022/11/11 02:35:36;;;;;;;76.57;45.28;;;;;;;7.37;75.45;100502.34;5094926;28;20387;-69
2022/11/11 02:38:07;;;;;;;75.10;44.95;;;;;;;7.29;75.90;100508.50;5094889;28;20016;-69
2022/11/11 02:40:37;;;;;;;68.38;42.80;;;;;;;7.35;75.38;100503.75;5094842;28;20028;-69
2022/11/11 02:43:04;;;;;;;68.55;42.05;;;;;;;7.42;75.36;100507.03;5094606;28;20430;-69
2022/11/11 02:45:30;;;;;;;72.35;44.00;;;;;;;7.38;75.54;100498.44;5092933;28;20047;-69
2022/11/11 02:47:55;;;;;;;73.30;44.20;;;;;;;7.39;75.43;100499.25;5094830;28;20030;-69
2022/11/11 02:50:21;;;;;;;66.60;41.45;;;;;;;7.33;75.47;100511.56;5076244;28;20431;-69
2022/11/11 02:52:46;;;;;;;69.75;41.65;;;;;;;7.31;76.05;100506.25;5076454;28;20189;-69
2022/11/11 02:55:12;;;;;;;71.85;43.53;;;;;;;7.33;75.73;100506.81;5094532;28;20465;-69
2022/11/11 02:57:38;;;;;;;69.78;43.30;;;;;;;7.42;75.35;100509.81;5094412;28;20371;-69
2022/11/11 03:00:04;;;;;;;66.47;41.65;;;;;;;7.44;75.30;100524.28;5076731;28;20051;-69
2022/11/11 03:02:30;;;;;;;64.90;39.33;;;;;;;7.37;74.95;100507.91;5056239;28;20020;-69
2022/11/11 03:04:56;;;;;;;67.68;39.45;;;;;;;7.14;74.74;100520.53;5073977;28;20025;-69
2022/11/11 03:07:23;;;;;;;66.68;41.58;;;;;;;6.96;74.46;100508.97;5074131;28;20383;-69
2022/11/11 03:09:49;;;;;;;85.75;39.95;;;;;;;6.92;74.48;100523.72;5055862;28;20023;-69
2022/11/11 03:12:15;;;;;;;68.90;42.40;;;;;;;6.93;75.16;100517.03;5068047;28;20050;-69
2022/11/11 03:14:41;;;;;;;68.53;42.53;;;;;;;6.92;75.11;100520.94;5094202;28;20024;-69
2022/11/11 03:19:51;;;;;;;67.03;40.10;;;;;;;6.86;75.42;100509.81;5092576;28;20480;-69
2022/11/11 03:22:16;;;;;;;84.20;42.50;;;;;;;6.85;75.83;100508.16;5073820;28;20036;-69
2022/11/11 03:27:25;;;;;;;77.00;44.40;;;;;;;6.95;76.08;100512.03;5086012;28;20516;-69
2022/11/11 03:29:51;;;;;;;81.88;45.15;;;;;;;6.97;75.83;100513.41;5075579;28;20048;-69
2022/11/11 03:32:16;;;;;;;77.03;43.90;;;;;;;6.96;76.03;100497.84;5093641;28;20024;-69
2022/11/11 03:34:42;;;;;;;74.03;42.28;;;;;;;6.96;75.73;100506.19;5056676;28;20094;-69
2022/11/11 03:39:55;;;;;;;72.45;41.15;;;;;;;6.91;75.82;100508.16;5073698;28;20051;-69
2022/11/11 03:42:20;;;;;;;72.10;42.45;;;;;;;6.91;75.54;100510.94;5088301;28;20032;-69
2022/11/11 03:44:46;;;;;;;63.08;40.33;;;;;;;6.81;75.60;100509.84;5093527;28;20024;-69
2022/11/11 03:47:11;;;;;;;65.00;41.22;;;;;;;6.81;76.06;100512.63;5093608;28;20457;-69
2022/11/11 03:49:37;;;;;;;65.07;39.17;;;;;;;6.87;75.83;100505.09;5093381;28;20028;-69
2022/11/11 03:52:05;;;;;;;66.22;40.60;;;;;;;6.80;75.64;100508.19;5093324;28;20029;-69
2022/11/11 03:54:31;;;;;;;64.97;38.47;;;;;;;6.79;76.09;100502.91;5093515;28;20024;-69
2022/11/11 03:57:29;;;;;;;72.40;40.30;;;;;;;6.62;76.38;100498.53;5073748;28;20035;-69
2022/11/11 03:59:42;;;;;;;64.35;39.35;;;;;;;6.49;77.29;100502.72;5092980;28;20511;-69
2022/11/11 04:10:36;;;;;;;132.57;72.90;;;;;;;6.73;77.58;100508.50;5091820;28;20066;-69
2022/11/11 04:16:04;;;;;;;113.45;67.32;;;;;;;6.72;77.54;100503.22;5093304;28;20031;-69
2022/11/11 04:21:56;;;;;;;131.52;79.63;;;;;;;6.76;78.13;100526.56;5092934;28;20081;-69
2022/11/11 04:25:47;;;;;;;124.03;73.28;;;;;;;6.56;78.75;100522.72;5082919;28;20122;-69
2022/11/11 04:26:49;;;;;;;129.48;72.68;;;;;;;6.65;78.58;100522.16;5091125;28;20035;-69
2022/11/11 04:29:27;;;;;;;115.47;66.25;;;;;;;6.59;78.57;100524.94;5074581;28;20111;-69
2022/11/11 04:34:42;;;;;;;97.85;60.92;;;;;;;6.56;78.78;100525.50;5092986;28;20173;-69
2022/11/11 04:37:08;;;;;;;106.10;64.43;;;;;;;6.66;78.74;100532.16;5092316;28;20110;-69
2022/11/11 04:42:18;;;;;;;106.35;63.83;;;;;;;6.66;78.90;100538.53;5092448;28;20042;-69
2022/11/11 04:47:27;;;;;;;81.70;47.08;;;;;;;6.71;78.44;100541.31;5092385;28;20108;-69
2022/11/11 04:49:52;;;;;;;70.10;41.72;;;;;;;6.70;78.72;100538.81;5092194;28;20031;-69
2022/11/11 04:52:27;;;;;;;86.22;44.53;;;;;;;6.71;78.67;100534.91;5072460;28;20028;-69
2022/11/11 04:57:43;;;;;;;82.28;43.00;;;;;;;6.69;78.08;100542.72;5092394;28;20561;-69
2022/11/11 05:00:10;;;;;;;81.10;43.33;;;;;;;6.79;77.36;100552.97;5092113;28;20418;-69
2022/11/11 05:05:21;;;;;;;72.78;40.95;;;;;;;6.80;77.65;100549.91;5090549;28;20039;-69
2022/11/11 05:10:30;;;;;;;69.60;41.85;;;;;;;6.91;77.12;100536.78;5092005;28;20051;-69
2022/11/11 05:21:19;;;;;;;81.75;46.83;;;;;;;6.88;77.15;100541.00;5074152;28;20487;-69
2022/11/11 05:21:21;;;;;;;60.33;37.00;;;;;;;6.85;77.35;100547.09;5083940;28;20067;-69
2022/11/11 05:26:32;;;;;;;55.05;33.75;;;;;;;6.85;77.66;100549.06;5091954;28;20081;-69
2022/11/11 05:28:58;;;;;;;65.20;34.40;;;;;;;6.87;77.67;100553.19;5091632;28;20482;-69
2022/11/11 05:31:23;;;;;;;70.97;37.40;;;;;;;6.81;77.88;100556.28;5091713;28;20031;-69
2022/11/11 05:33:49;;;;;;;72.40;37.63;;;;;;;6.83;78.08;100560.47;5085766;28;20054;-70
2022/11/11 05:36:14;;;;;;;67.43;36.47;;;;;;;6.94;77.34;100566.00;5091324;28;20028;-69
2022/11/11 05:38:40;;;;;;;54.78;33.50;;;;;;;6.98;77.75;100559.56;5091487;28;20479;-69
2022/11/11 05:41:06;;;;;;;60.58;33.40;;;;;;;7.15;77.07;100559.22;5073353;28;20532;-69
2022/11/11 05:43:32;;;;;;;68.55;35.33;;;;;;;7.16;76.62;100563.66;5088439;28;20028;-69
2022/11/11 05:45:57;;;;;;;60.05;32.80;;;;;;;7.19;76.25;100561.44;5091155;28;20043;-69
2022/11/11 05:48:23;;;;;;;60.20;32.10;;;;;;;7.23;76.30;100568.09;5089314;28;20035;-69
2022/11/11 05:50:48;;;;;;;50.70;30.75;;;;;;;7.29;76.43;100573.34;5091255;28;20108;-69
2022/11/11 05:53:14;;;;;;;53.28;28.75;;;;;;;7.25;76.76;100572.25;5091521;28;20024;-69
2022/11/11 05:55:39;;;;;;;54.17;29.00;;;;;;;7.41;76.79;100578.56;5090898;28;20499;-69
2022/11/11 05:58:04;;;;;;;57.83;28.65;;;;;;;7.58;76.43;100574.56;5073192;28;20559;-69
2022/11/11 06:00:30;;;;;;;70.20;34.47;;;;;;;7.63;76.41;100571.78;5067552;28;20462;-69
2022/11/11 06:03:07;;;;;;;56.50;30.63;;;;;;;7.77;76.51;100576.69;5089602;28;20426;-71
2022/11/11 06:05:34;;;;;;;55.38;29.15;;;;;;;7.79;76.44;100563.31;5072907;28;20028;-70
2022/11/11 06:08:00;;;;;;;55.40;27.75;;;;;;;7.87;76.62;100566.31;5072985;28;20409;-70
2022/11/11 06:10:31;;;;;;;53.83;30.00;;;;;;;8.01;76.80;100572.06;5072979;28;20021;-71
2022/11/11 06:13:09;;;;;;;49.88;26.52;;;;;;;8.09;77.25;100580.94;5089045;28;20043;-72
2022/11/11 06:15:36;;;;;;;54.78;29.02;;;;;;;8.22;78.78;100584.97;5083636;28;20028;-69
2022/11/11 06:18:05;;;;;;;47.35;28.02;;;;;;;8.46;78.87;100587.84;5083822;28;20028;-70
2022/11/11 06:20:34;;;;;;;49.78;28.08;;;;;;;8.63;78.88;100587.44;5084893;28;20048;-69
2022/11/11 06:23:00;;;;;;;43.33;26.95;;;;;;;8.87;78.06;100594.16;5066647;28;20418;-72
2022/11/11 06:28:13;;;;;;;44.80;29.60;;;;;;;9.27;77.83;100584.47;5084439;28;20088;-73
2022/11/11 06:30:38;;;;;;;51.72;29.35;;;;;;;9.50;77.46;100593.09;5079070;28;20028;-73
2022/11/11 06:33:06;;;;;;;55.97;31.95;;;;;;;9.66;77.35;100599.31;5068114;28;20073;-73
2022/11/11 06:35:34;;;;;;;54.63;29.33;;;;;;;9.92;77.36;100601.72;5091016;28;20024;-74
2022/11/11 06:38:00;;;;;;;56.55;31.55;;;;;;;10.06;76.48;100600.94;5088663;28;20085;-73
2022/11/11 06:40:25;;;;;;;54.28;32.08;;;;;;;10.24;76.21;100602.06;5091030;28;20016;-72
2022/11/11 06:42:51;;;;;;;58.13;32.85;;;;;;;10.36;76.26;100596.81;5090700;28;20081;-75
2022/11/11 06:45:17;;;;;;;54.20;32.97;;;;;;;10.51;76.11;100598.56;5087072;28;20032;-76
2022/11/11 06:47:42;;;;;;;55.38;32.60;;;;;;;10.65;75.43;100598.56;5090840;28;20024;-77
2022/11/11 06:50:08;;;;;;;56.60;30.48;;;;;;;10.79;76.40;100597.75;5083047;28;20029;-72
2022/11/11 06:52:33;;;;;;;53.63;30.98;;;;;;;11.01;75.98;100599.84;5080108;28;20063;-73
2022/11/11 06:54:59;;;;;;;50.35;30.60;;;;;;;11.19;75.99;100606.50;5070123;28;20027;-73
2022/11/11 06:57:24;;;;;;;61.83;33.40;;;;;;;11.35;75.50;100609.81;5090534;28;20039;-73
2022/11/11 06:59:50;;;;;;;45.78;29.48;;;;;;;11.52;75.12;100597.13;5087017;28;20040;-72
2022/11/11 07:02:15;;;;;;;50.15;29.85;;;;;;;11.73;74.70;100603.09;5090601;28;20399;-71
2022/11/11 07:04:41;;;;;;;46.60;29.25;;;;;;;11.85;74.67;100594.16;5079592;28;20074;-69
2022/11/11 07:07:06;;;;;;;63.28;36.67;;;;;;;12.09;73.37;100590.25;5075153;28;20521;-70
2022/11/11 07:09:32;;;;;;;52.70;29.13;;;;;;;12.14;72.81;100589.31;5064706;28;20463;-71
2022/11/11 07:11:58;;;;;;;42.67;27.33;;;;;;;12.27;72.00;100588.41;5089965;28;20035;-73
2022/11/11 07:14:23;;;;;;;74.57;44.90;;;;;;;12.43;72.56;100593.63;5073179;28;20052;-72
2022/11/11 07:16:49;;;;;;;44.70;25.88;;;;;;;12.64;72.02;100591.94;5087799;28;20546;-71
2022/11/11 07:19:14;;;;;;;40.63;25.55;;;;;;;12.73;70.66;100594.78;5087235;28;20034;-70
2022/11/11 07:21:40;;;;;;;43.83;26.33;;;;;;;12.90;70.81;100604.44;5067359;28;20464;-69
2022/11/11 07:24:05;;;;;;;45.25;26.45;;;;;;;12.96;70.75;100597.53;5082592;28;20553;-72
2022/11/11 07:26:31;;;;;;;40.50;26.35;;;;;;;13.00;70.47;100601.34;5082240;28;20017;-70
2022/11/11 07:28:57;;;;;;;42.92;25.35;;;;;;;12.95;70.15;100607.09;5060258;28;20516;-70
2022/11/11 07:31:22;;;;;;;38.15;27.13;;;;;;;12.97;70.84;100609.56;5086244;28;20043;-69
2022/11/11 07:33:48;;;;;;;46.30;25.10;;;;;;;12.88;70.06;100612.34;5089891;28;20031;-71
2022/11/11 07:36:13;;;;;;;45.80;27.02;;;;;;;12.91;70.39;100611.69;5087673;28;20058;-72
2022/11/11 07:38:40;;;;;;;44.30;26.92;;;;;;;12.87;70.46;100607.88;5080058;28;20020;-80
2022/11/11 07:41:05;;;;;;;52.60;28.00;;;;;;;12.87;70.79;100613.50;5092234;28;20107;-72
2022/11/11 07:43:31;;;;;;;46.20;27.73;;;;;;;12.89;70.56;100609.22;5093079;28;20035;-73
2022/11/11 07:45:56;;;;;;;39.53;26.27;;;;;;;12.93;69.84;100612.22;5071049;28;20038;-72
2022/11/11 07:48:22;;;;;;;46.33;28.25;;;;;;;13.04;69.65;100602.38;5086820;28;20024;-70
2022/11/11 07:50:47;;;;;;;55.10;28.00;;;;;;;13.10;69.84;100602.22;5063515;28;20499;-72
2022/11/11 07:53:13;;;;;;;54.63;28.15;;;;;;;13.21;70.15;100597.94;5066845;28;20038;-69
2022/11/11 07:55:39;;;;;;;56.35;30.13;;;;;;;13.24;69.83;100602.09;5061690;28;20073;-71
2022/11/11 07:58:05;;;;;;;53.72;31.27;;;;;;;13.35;69.90;100609.06;5056185;28;20410;-71
2022/11/11 08:00:30;;;;;;;45.10;27.38;;;;;;;13.38;69.17;100604.75;5063353;28;20510;-71
2022/11/11 08:02:56;;;;;;;41.13;25.05;;;;;;;13.38;69.22;100596.34;5093437;28;20055;-72
2022/11/11 08:05:22;;;;;;;44.55;26.45;;;;;;;13.42;69.24;100606.59;5075087;28;20020;-72
2022/11/11 08:07:47;;;;;;;48.22;27.98;;;;;;;13.43;69.66;100599.00;5087629;28;20028;-70
2022/11/11 08:10:14;;;;;;;47.67;27.20;;;;;;;13.51;69.26;100601.03;5093146;28;20028;-70
2022/11/11 08:15:23;;;;;;;45.70;26.73;;;;;;;13.53;69.33;100598.75;5073391;28;20125;-72
2022/11/11 08:17:49;;;;;;;49.78;26.70;;;;;;;13.53;69.17;100597.91;5063910;28;20795;-72
2022/11/11 08:20:14;;;;;;;44.28;27.42;;;;;;;13.56;69.08;100608.47;5069738;28;20035;-73
2022/11/11 08:22:41;;;;;;;40.63;26.08;;;;;;;13.55;68.88;100607.66;5069966;28;20020;-71
2022/11/11 08:25:09;;;;;;;45.00;27.27;;;;;;;13.58;69.20;100604.19;5065651;28;20410;-69
2022/11/11 08:27:36;;;;;;;34.67;23.25;;;;;;;13.58;69.21;100607.00;5083627;28;20032;-75
2022/11/11 08:30:03;;;;;;;39.50;25.80;;;;;;;13.63;68.92;100611.66;5061930;28;20506;-71
2022/11/11 08:32:28;;;;;;;37.40;24.10;;;;;;;13.67;68.03;100614.63;5074029;28;20063;-75
2022/11/11 08:34:54;;;;;;;34.92;24.73;;;;;;;13.65;68.44;100608.50;5085597;28;20051;-71
2022/11/11 08:37:20;;;;;;;40.75;24.70;;;;;;;13.72;68.10;100618.13;5062186;28;20509;-70
2022/11/11 08:39:46;;;;;;;40.58;25.02;;;;;;;13.75;68.17;100610.97;5079933;28;20093;-71
2022/11/11 08:42:11;;;;;;;36.92;25.13;;;;;;;13.75;67.67;100610.97;5062635;28;20428;-71
2022/11/11 08:44:36;;;;;;;43.42;24.60;;;;;;;13.82;67.53;100619.78;5073811;28;20078;-70
2022/11/11 08:47:02;;;;;;;43.78;28.92;;;;;;;13.84;67.66;100625.06;5072853;28;20024;-71
2022/11/11 08:49:27;;;;;;;49.38;31.20;;;;;;;13.89;67.69;100628.56;5053921;28;20098;-70
2022/11/11 08:51:53;;;;;;;35.50;22.88;;;;;;;13.95;66.96;100626.41;5078329;28;20028;-70
2022/11/11 08:54:18;;;;;;;38.88;26.80;;;;;;;13.96;67.33;100630.03;5082143;28;20032;-70
2022/11/11 08:56:44;;;;;;;38.75;25.00;;;;;;;14.01;67.34;100632.72;5073953;28;20019;-70
2022/11/11 08:59:10;;;;;;;35.10;23.23;;;;;;;14.04;66.45;100634.84;5063731;28;20118;-72
2022/11/11 09:01:36;;;;;;;36.03;23.73;;;;;;;13.98;66.75;100634.19;5061956;28;20044;-72
2022/11/11 09:04:01;;;;;;;40.60;22.75;;;;;;;14.06;67.11;100632.53;5080869;28;20754;-72
2022/11/11 09:06:27;;;;;;;41.28;26.42;;;;;;;14.08;66.58;100633.03;5060324;28;20114;-73
2022/11/11 09:08:53;;;;;;;39.58;25.10;;;;;;;14.13;66.12;100632.03;5076495;28;20028;-73
2022/11/11 09:11:18;;;;;;;38.17;25.40;;;;;;;14.16;66.00;100635.00;5075891;28;20028;-71
2022/11/11 09:13:45;;;;;;;36.40;24.88;;;;;;;14.24;66.27;100624.91;5054666;28;20070;-73
2022/11/11 09:16:11;;;;;;;40.92;22.48;;;;;;;14.30;65.86;100634.00;5074721;28;20050;-72
2022/11/11 09:18:36;;;;;;;32.35;21.70;;;;;;;14.30;65.38;100636.81;5075356;28;20020;-72
2022/11/11 09:21:02;;;;;;;30.63;19.35;;;;;;;14.27;64.87;100637.50;5078259;28;20020;-73
2022/11/11 09:23:27;;;;;;;31.25;20.63;;;;;;;14.22;65.23;100646.09;5065527;28;20490;-76
2022/11/11 09:25:53;;;;;;;35.45;19.77;;;;;;;14.21;65.08;100636.00;5075477;28;20035;-79
2022/11/11 09:28:18;;;;;;;34.22;20.15;;;;;;;14.26;64.95;100635.84;5087491;28;20095;-71
2022/11/11 09:30:44;;;;;;;39.88;19.73;;;;;;;14.23;64.54;100645.78;5084505;28;20024;-71
2022/11/11 09:33:11;;;;;;;34.47;20.45;;;;;;;14.18;64.75;100643.94;5075946;28;20025;-72
2022/11/11 09:35:37;;;;;;;29.38;19.40;;;;;;;14.18;64.57;100646.75;5071366;28;20539;-70
2022/11/11 09:38:03;;;;;;;30.67;18.63;;;;;;;14.09;64.49;100642.31;5079412;28;20390;-71
2022/11/11 09:41:10;;;;;;;38.33;19.70;;;;;;;14.13;64.80;100638.50;5055316;28;20054;-71
2022/11/11 09:43:44;;;;;;;32.72;17.75;;;;;;;14.09;64.72;100637.50;5035895;28;20483;-70
2022/11/11 09:46:38;;;;;;;33.22;18.65;;;;;;;14.03;65.36;100644.44;5069025;28;20491;-71
2022/11/11 09:49:38;;;;;;;41.15;19.83;;;;;;;14.02;65.64;100632.34;5071235;28;20108;-70
2022/11/11 09:52:19;;;;;;;30.13;18.48;;;;;;;13.98;66.33;100642.63;4973583;28;20035;-71
2022/11/11 09:54:56;;;;;;;27.95;18.35;;;;;;;14.02;66.36;100637.16;5060773;28;20036;-71
2022/11/11 09:57:36;;;;;;;28.17;18.13;;;;;;;13.94;65.48;100630.38;5070897;28;20036;-70
2022/11/11 10:00:06;;;;;;;27.27;17.17;;;;;;;13.95;65.52;100637.66;5052359;28;20044;-71
2022/11/11 10:03:01;;;;;;;28.42;17.55;;;;;;;14.03;65.06;100638.81;5053783;28;20037;-72
2022/11/11 10:05:37;;;;;;;28.23;16.40;;;;;;;13.89;64.64;100639.81;5069339;28;20075;-70
2022/11/11 10:08:25;;;;;;;26.42;17.17;;;;;;;13.86;65.12;100634.81;5084466;28;20028;-71
2022/11/11 10:10:53;;;;;;;31.40;20.08;;;;;;;13.91;64.97;100639.47;5089381;28;20482;-71
2022/11/11 10:13:32;;;;;;;25.25;17.88;;;;;;;13.96;64.78;100635.66;5071004;28;20479;-71
2022/11/11 10:16:06;;;;;;;24.92;16.38;;;;;;;14.00;64.40;100633.88;5081456;28;20414;-71
2022/11/11 10:18:41;;;;;;;29.20;16.67;;;;;;;13.97;64.42;100637.31;5050993;28;20036;-71
2022/11/11 10:21:16;;;;;;;24.80;15.70;;;;;;;14.01;64.14;100635.53;5070347;28;20017;-71
2022/11/11 10:23:47;;;;;;;26.95;18.33;;;;;;;14.00;64.24;100629.06;5070900;28;20028;-71
2022/11/11 10:26:36;;;;;;;30.00;16.35;;;;;;;14.08;64.06;100635.84;5057701;28;20506;-71
2022/11/11 10:29:05;;;;;;;26.05;17.17;;;;;;;14.03;63.83;100630.38;5073364;28;20028;-71
2022/11/11 10:31:30;;;;;;;30.23;18.75;;;;;;;13.97;63.79;100640.97;5071761;28;20418;-71
2022/11/11 10:34:09;;;;;;;31.88;18.95;;;;;;;13.97;63.87;100629.72;5070048;28;20020;-72
2022/11/11 10:36:42;;;;;;;39.47;20.30;;;;;;;13.93;63.73;100637.13;5070777;28;20020;-71
2022/11/11 10:39:12;;;;;;;29.52;18.10;;;;;;;13.90;64.20;100635.00;5070898;28;20024;-71
2022/11/11 10:41:49;;;;;;;28.58;18.58;;;;;;;13.86;64.20;100629.19;5071215;28;20024;-71
2022/11/11 10:44:20;;;;;;;35.65;20.08;;;;;;;13.83;64.40;100635.47;5074688;28;20052;-71
2022/11/11 10:47:02;;;;;;;92.35;38.47;;;;;;;13.72;64.48;100632.16;5059125;28;20039;-71
2022/11/11 10:49:38;;;;;;;32.67;20.45;;;;;;;13.69;64.89;100632.00;5074150;28;20115;-71
2022/11/11 10:52:14;;;;;;;31.67;17.83;;;;;;;13.67;65.13;100634.31;5074283;28;20078;-73
2022/11/11 10:55:05;;;;;;;25.90;17.52;;;;;;;13.66;65.43;100629.84;5072402;28;20027;-71
2022/11/11 10:57:40;;;;;;;30.70;20.90;;;;;;;13.70;65.48;100622.41;5082258;28;20453;-72
2022/11/11 11:00:09;;;;;;;30.15;19.33;;;;;;;13.65;65.77;100629.00;5049363;28;20440;-71
2022/11/11 11:02:49;;;;;;;26.55;18.33;;;;;;;13.69;65.06;100624.38;5034795;28;20104;-72
2022/11/11 11:05:23;;;;;;;;;;;;;;;13.69;65.15;100624.38;5033210;28;20037;-71
2022/11/11 11:07:52;;;;;;;28.80;18.48;;;;;;;13.70;65.31;100617.63;5032542;28;20015;-72
2022/11/11 11:10:20;;;;;;;29.42;18.42;;;;;;;13.69;65.27;100615.94;5032684;28;20116;-71
2022/11/11 11:13:04;;;;;;;30.10;17.67;;;;;;;13.72;65.03;100618.13;5033932;28;20091;-71
2022/11/11 11:15:32;;;;;;;29.55;17.75;;;;;;;13.75;65.15;100610.97;5041162;28;20049;-73
2022/11/11 11:18:06;;;;;;;26.17;16.95;;;;;;;13.79;64.76;100612.00;5046756;28;20057;-71
2022/11/11 11:20:32;;;;;;;34.75;18.77;;;;;;;13.91;64.79;100608.53;5038956;28;20511;-71
2022/11/11 11:22:59;;;;;;;30.67;18.35;;;;;;;13.88;64.61;100610.03;5041473;28;20032;-72
2022/11/11 11:25:28;;;;;;;39.67;19.95;;;;;;;13.92;64.25;100612.19;5052323;28;20021;-72
2022/11/11 11:28:08;;;;;;;48.75;23.92;;;;;;;13.94;63.72;100602.25;5053788;28;20016;-71
2022/11/11 11:30:34;;;;;;;28.60;18.45;;;;;;;14.00;63.30;100591.66;5037735;28;20029;-71
2022/11/11 11:33:00;;;;;;;26.95;18.60;;;;;;;14.02;63.40;100592.16;5047109;28;20550;-71
2022/11/11 11:35:29;;;;;;;32.80;18.33;;;;;;;14.11;63.33;100595.78;5041372;28;20102;-71
2022/11/11 11:37:54;;;;;;;28.40;17.63;;;;;;;14.19;63.54;100594.16;5046768;28;20058;-72
2022/11/11 11:40:20;;;;;;;30.10;17.25;;;;;;;14.23;63.05;100594.28;5032038;28;20074;-70
2022/11/11 11:42:45;;;;;;;26.25;16.23;;;;;;;14.31;62.35;100587.81;5035832;28;20083;-70
2022/11/11 11:45:28;;;;;;;28.25;17.48;;;;;;;14.40;62.26;100585.84;5033238;28;20024;-71
2022/11/11 11:47:53;;;;;;;27.42;17.15;;;;;;;14.44;61.96;100586.81;5043027;28;20555;-71
2022/11/11 11:51:00;;;;;;;23.17;16.58;;;;;;;14.42;62.01;100583.50;5034014;28;20117;-71
2022/11/11 11:53:29;;;;;;;23.60;15.57;;;;;;;14.43;62.23;100579.53;5033310;28;20104;-71
2022/11/11 11:56:24;;;;;;;23.60;14.00;;;;;;;14.47;60.86;100585.31;5040605;28;20540;-71
2022/11/11 11:58:52;;;;;;;23.92;15.27;;;;;;;14.44;60.82;100581.19;5031905;28;20052;-71
2022/11/11 12:01:30;;;;;;;32.75;17.02;;;;;;;14.48;60.17;100591.75;5069839;28;20075;-72
2022/11/11 12:04:00;;;;;;;24.35;16.10;;;;;;;14.48;60.20;100588.94;5082212;28;20020;-70
2022/11/11 12:06:46;;;;;;;23.88;15.20;;;;;;;14.51;59.98;100582.66;5055330;28;20035;-71
2022/11/11 12:09:35;;;;;;;19.20;13.45;;;;;;;14.47;59.59;100588.13;5055996;28;20034;-70
2022/11/11 12:12:43;;;;;;;20.25;13.48;;;;;;;14.46;59.52;100586.47;5084383;28;20095;-71
2022/11/11 12:15:20;;;;;;;33.75;14.13;;;;;;;14.41;60.18;100593.13;5027994;28;20101;-71
2022/11/11 12:18:19;;;;;;;18.77;13.15;;;;;;;14.37;59.99;100592.13;5092697;28;20068;-76
2022/11/11 12:20:56;;;;;;;21.40;13.98;;;;;;;14.26;60.54;100586.00;5062047;28;20380;-70
2022/11/11 12:23:36;;;;;;;23.35;15.02;;;;;;;14.26;61.12;100602.09;5077838;28;20036;-71
2022/11/11 12:26:20;;;;;;;31.40;18.70;;;;;;;14.21;61.04;100599.41;5077201;28;20024;-69
2022/11/11 12:29:02;;;;;;;33.38;19.90;;;;;;;14.28;60.85;100589.31;5092910;28;20035;-71
2022/11/11 12:31:53;;;;;;;37.83;21.35;;;;;;;14.27;60.78;100593.28;5057858;28;20028;-70
2022/11/11 12:34:37;;;;;;;31.45;21.02;;;;;;;14.36;60.55;100593.31;5054593;28;20111;-69
2022/11/11 12:37:27;;;;;;;22.23;15.63;;;;;;;14.29;60.38;100587.34;5072586;28;20491;-73
2022/11/11 12:40:15;;;;;;;25.20;16.80;;;;;;;14.29;60.81;100590.16;5072634;28;20028;-71
2022/11/11 12:42:43;;;;;;;22.48;15.73;;;;;;;14.29;60.61;100590.16;5092832;28;20039;-72